createdAt,value
2023-04-27T00:18:19.955Z,19.5
2023-04-27T00:48:19.986Z,19.5
2023-04-27T01:18:19.988Z,19.4
2023-04-27T01:48:19.998Z,19.3
2023-04-27T02:18:20.000Z,19.3
2023-04-27T02:48:19.966Z,19.3
2023-04-27T03:18:19.951Z,19.2
2023-04-27T03:48:19.964Z,19.2
2023-04-27T04:18:19.950Z,19.3
2023-04-27T04:48:19.962Z,19.4
2023-04-27T05:18:19.677Z,19.4
2023-04-27T05:48:19.691Z,19.5
2023-04-27T06:18:19.984Z,19.7
2023-04-27T06:48:19.982Z,19.7
2023-04-27T07:18:19.984Z,19.8
2023-04-27T07:48:19.964Z,19.8
2023-04-27T08:18:19.964Z,19.8
2023-04-27T08:48:19.965Z,19.8
2023-04-27T09:18:20.084Z,19.8
2023-04-27T09:48:19.984Z,19.8
2023-04-27T10:18:20.119Z,19.8
2023-04-27T11:18:19.988Z,20.0
2023-04-27T11:48:20.041Z,20.0
2023-04-27T12:18:19.965Z,20.0
2023-04-27T12:48:20.005Z,19.9
2023-04-27T13:18:19.941Z,19.9
2023-04-27T13:48:19.944Z,19.8
2023-04-27T14:18:19.954Z,19.8
2023-04-27T14:48:19.966Z,19.8
2023-04-27T15:18:19.976Z,19.8
2023-04-27T15:48:19.969Z,19.8
2023-04-27T16:18:19.994Z,19.7
2023-04-27T16:48:20.035Z,19.7
2023-04-27T17:18:19.658Z,19.7
2023-04-27T17:48:19.939Z,19.6
2023-04-27T18:18:19.943Z,19.6
2023-04-27T18:48:19.931Z,19.6
2023-04-27T19:18:19.968Z,19.8
2023-04-27T19:48:19.941Z,19.9
2023-04-27T20:18:19.922Z,20.0
2023-04-27T20:48:19.912Z,20.0
2023-04-27T21:18:19.920Z,20.0
2023-04-27T21:48:19.916Z,19.9
2023-04-27T22:18:19.933Z,19.8
2023-04-27T22:48:19.944Z,19.8
2023-04-27T23:18:19.950Z,19.8
2023-04-27T23:48:19.928Z,19.8
